sensor_id;sensor_type;location;lat;lon;timestamp;pressure;altitude;pressure_sealevel;temperature;humidity
19890;BME280;10107;51.198;6.824;2023-04-19T00:00:07;-21597.91;;;10.63;92.58
19890;BME280;10107;51.198;6.824;2023-04-19T00:04:10;-21597.63;;;10.62;92.77
19890;BME280;10107;51.198;6.824;2023-04-19T00:08:13;-21597.38;;;10.61;92.80
19890;BME280;10107;51.198;6.824;2023-04-19T00:12:15;-21597.22;;;10.60;93.22
19890;BME280;10107;51.198;6.824;2023-04-19T00:16:16;-21597.22;;;10.60;93.35
19890;BME280;10107;51.198;6.824;2023-04-19T00:20:19;-21596.69;;;10.58;94.44
19890;BME280;10107;51.198;6.824;2023-04-19T00:24:22;-21596.31;;;10.57;94.88
19890;BME280;10107;51.198;6.824;2023-04-19T00:28:24;-21596.84;;;10.59;94.87
19890;BME280;10107;51.198;6.824;2023-04-19T00:32:26;-21596.97;;;10.59;94.60
19890;BME280;10107;51.198;6.824;2023-04-19T00:36:28;-21596.97;;;10.59;95.54
19890;BME280;10107;51.198;6.824;2023-04-19T00:40:31;-21596.56;;;10.58;95.55
19890;BME280;10107;51.198;6.824;2023-04-19T00:44:33;-21596.16;;;10.56;95.83
19890;BME280;10107;51.198;6.824;2023-04-19T00:48:35;-21596.16;;;10.56;96.52
19890;BME280;10107;51.198;6.824;2023-04-19T00:52:38;-21595.63;;;10.54;96.79
19890;BME280;10107;51.198;6.824;2023-04-19T00:56:42;-21595.78;;;10.55;97.16
19890;BME280;10107;51.198;6.824;2023-04-19T01:00:45;-21595.38;;;10.53;97.36
19890;BME280;10107;51.198;6.824;2023-04-19T01:04:47;-21595.63;;;10.54;97.57
19890;BME280;10107;51.198;6.824;2023-04-19T01:08:49;-21594.97;;;10.52;98.10
19890;BME280;10107;51.198;6.824;2023-04-19T01:12:52;-21594.97;;;10.52;99.17
19890;BME280;10107;51.198;6.824;2023-04-19T01:16:53;-21595.13;;;10.52;100.00
19890;BME280;10107;51.198;6.824;2023-04-19T01:20:55;-21594.84;;;10.51;99.22
19890;BME280;10107;51.198;6.824;2023-04-19T01:24:58;-21595.38;;;10.53;100.00
19890;BME280;10107;51.198;6.824;2023-04-19T01:29:01;-21595.91;;;10.55;100.00
19890;BME280;10107;51.198;6.824;2023-04-19T01:33:02;-21596.03;;;10.56;100.00
19890;BME280;10107;51.198;6.824;2023-04-19T01:37:04;-21595.38;;;10.53;100.00
19890;BME280;10107;51.198;6.824;2023-04-19T01:41:09;-21594.97;;;10.52;100.00
19890;BME280;10107;51.198;6.824;2023-04-19T01:45:10;-21595.25;;;10.53;100.00
19890;BME280;10107;51.198;6.824;2023-04-19T01:49:13;-21595.63;;;10.54;100.00
19890;BME280;10107;51.198;6.824;2023-04-19T01:53:16;-21595.50;;;10.54;100.00
19890;BME280;10107;51.198;6.824;2023-04-19T01:57:19;-21595.78;;;10.55;100.00
19890;BME280;10107;51.198;6.824;2023-04-19T02:01:21;-21595.38;;;10.53;100.00
19890;BME280;10107;51.198;6.824;2023-04-19T02:05:24;-21595.25;;;10.53;100.00
19890;BME280;10107;51.198;6.824;2023-04-19T02:09:27;-21595.38;;;10.53;100.00
19890;BME280;10107;51.198;6.824;2023-04-19T02:13:30;-21595.13;;;10.52;100.00
19890;BME280;10107;51.198;6.824;2023-04-19T02:17:32;-21594.97;;;10.52;100.00
19890;BME280;10107;51.198;6.824;2023-04-19T02:21:35;-21594.19;;;10.48;100.00
19890;BME280;10107;51.198;6.824;2023-04-19T02:25:36;-21593.91;;;10.47;100.00
19890;BME280;10107;51.198;6.824;2023-04-19T02:29:40;-21591.53;;;10.38;100.00
19890;BME280;10107;51.198;6.824;2023-04-19T02:33:42;-21587.94;;;10.24;100.00
19890;BME280;10107;51.198;6.824;2023-04-19T02:37:46;-21585.16;;;10.14;100.00
19890;BME280;10107;51.198;6.824;2023-04-19T02:41:48;-21581.47;;;9.99;100.00
19890;BME280;10107;51.198;6.824;2023-04-19T02:45:51;-21578.69;;;9.88;100.00
19890;BME280;10107;51.198;6.824;2023-04-19T02:49:54;-21576.69;;;9.81;100.00
19890;BME280;10107;51.198;6.824;2023-04-19T02:53:59;-21576.56;;;9.80;100.00
19890;BME280;10107;51.198;6.824;2023-04-19T02:58:00;-21576.28;;;9.79;100.00
19890;BME280;10107;51.198;6.824;2023-04-19T03:02:04;-21575.34;;;9.76;100.00
19890;BME280;10107;51.198;6.824;2023-04-19T03:06:06;-21574.03;;;9.70;100.00
19890;BME280;10107;51.198;6.824;2023-04-19T03:10:09;-21573.22;;;9.67;100.00
19890;BME280;10107;51.198;6.824;2023-04-19T03:14:10;-21573.22;;;9.67;100.00
19890;BME280;10107;51.198;6.824;2023-04-19T03:18:14;-21572.84;;;9.66;100.00
19890;BME280;10107;51.198;6.824;2023-04-19T03:22:16;-21573.22;;;9.67;100.00
19890;BME280;10107;51.198;6.824;2023-04-19T03:26:19;-21574.28;;;9.71;100.00
19890;BME280;10107;51.198;6.824;2023-04-19T03:30:24;-21574.81;;;9.74;100.00
19890;BME280;10107;51.198;6.824;2023-04-19T03:34:27;-21575.34;;;9.76;100.00
19890;BME280;10107;51.198;6.824;2023-04-19T03:38:29;-21575.88;;;9.78;100.00
19890;BME280;10107;51.198;6.824;2023-04-19T03:42:32;-21576.41;;;9.80;100.00
19890;BME280;10107;51.198;6.824;2023-04-19T03:46:41;-21576.81;;;9.81;100.00
19890;BME280;10107;51.198;6.824;2023-04-19T03:50:46;-21576.56;;;9.80;100.00
19890;BME280;10107;51.198;6.824;2023-04-19T03:54:51;-21576.41;;;9.80;100.00
19890;BME280;10107;51.198;6.824;2023-04-19T03:59:03;-21576.94;;;9.82;100.00
19890;BME280;10107;51.198;6.824;2023-04-19T04:03:08;-21577.34;;;9.83;100.00
19890;BME280;10107;51.198;6.824;2023-04-19T04:07:13;-21577.88;;;9.85;100.00
19890;BME280;10107;51.198;6.824;2023-04-19T04:11:14;-21578.69;;;9.88;100.00
19890;BME280;10107;51.198;6.824;2023-04-19T04:15:20;-21579.19;;;9.90;100.00
19890;BME280;10107;51.198;6.824;2023-04-19T04:19:26;-21579.34;;;9.91;100.00
19890;BME280;10107;51.198;6.824;2023-04-19T04:23:30;-21579.72;;;9.93;100.00
19890;BME280;10107;51.198;6.824;2023-04-19T04:27:35;-21580.13;;;9.94;100.00
19890;BME280;10107;51.198;6.824;2023-04-19T04:31:38;-21580.78;;;9.97;100.00
19890;BME280;10107;51.198;6.824;2023-04-19T04:35:40;-21581.19;;;9.98;100.00
19890;BME280;10107;51.198;6.824;2023-04-19T04:39:50;-21581.59;;;10.00;100.00
19890;BME280;10107;51.198;6.824;2023-04-19T04:43:51;-21582.00;;;10.01;100.00
19890;BME280;10107;51.198;6.824;2023-04-19T04:47:55;-21582.38;;;10.03;100.00
19890;BME280;10107;51.198;6.824;2023-04-19T04:51:57;-21582.78;;;10.04;99.89
19890;BME280;10107;51.198;6.824;2023-04-19T04:56:04;-21583.44;;;10.07;99.07
19890;BME280;10107;51.198;6.824;2023-04-19T05:00:07;-21583.59;;;10.07;98.66
19890;BME280;10107;51.198;6.824;2023-04-19T05:04:17;-21582.91;;;10.05;97.63
19890;BME280;10107;51.198;6.824;2023-04-19T05:08:19;-21582.25;;;10.02;96.54
19890;BME280;10107;51.198;6.824;2023-04-19T05:12:23;-21582.66;;;10.04;95.72
19890;BME280;10107;51.198;6.824;2023-04-19T05:16:26;-21582.53;;;10.03;94.13
19890;BME280;10107;51.198;6.824;2023-04-19T05:20:28;-21582.38;;;10.03;93.11
19890;BME280;10107;51.198;6.824;2023-04-19T05:24:40;-21582.13;;;10.02;91.63
19890;BME280;10107;51.198;6.824;2023-04-19T05:28:44;-21582.66;;;10.04;90.20
19890;BME280;10107;51.198;6.824;2023-04-19T05:32:54;-21582.91;;;10.05;88.94
19890;BME280;10107;51.198;6.824;2023-04-19T05:36:56;-21584.13;;;10.09;88.49
19890;BME280;10107;51.198;6.824;2023-04-19T05:40:58;-21586.88;;;10.20;86.40
19890;BME280;10107;51.198;6.824;2023-04-19T05:45:01;-21588.34;;;10.26;84.30
19890;BME280;10107;51.198;6.824;2023-04-19T05:49:03;-21589.53;;;10.30;84.05
19890;BME280;10107;51.198;6.824;2023-04-19T05:53:23;-21589.53;;;10.30;82.64
19890;BME280;10107;51.198;6.824;2023-04-19T05:57:26;-21592.06;;;10.40;81.66
19890;BME280;10107;51.198;6.824;2023-04-19T06:01:29;-21600.53;;;10.73;80.26
19890;BME280;10107;51.198;6.824;2023-04-19T06:05:32;-21608.63;;;11.04;76.77
19890;BME280;10107;51.198;6.824;2023-04-19T06:09:33;-21618.69;;;11.43;73.11
19890;BME280;10107;51.198;6.824;2023-04-19T06:13:35;-21646.31;;;12.51;67.52
19890;BME280;10107;51.198;6.824;2023-04-19T06:17:38;-21741.09;;;16.20;54.05
19890;BME280;10107;51.198;6.824;2023-04-19T06:21:40;-21800.03;;;18.51;45.74
19890;BME280;10107;51.198;6.824;2023-04-19T06:25:41;-21828.00;;;19.61;41.12
19890;BME280;10107;51.198;6.824;2023-04-19T06:29:43;-21843.25;;;20.21;39.04
19890;BME280;10107;51.198;6.824;2023-04-19T06:33:46;-21820.56;;;19.31;40.02
19890;BME280;10107;51.198;6.824;2023-04-19T06:37:47;-21833.72;;;19.83;39.02
19890;BME280;10107;51.198;6.824;2023-04-19T06:41:49;-21896.19;;;22.29;34.56
19890;BME280;10107;51.198;6.824;2023-04-19T06:45:56;-21895.28;;;22.26;33.60
19890;BME280;10107;51.198;6.824;2023-04-19T06:49:59;-21929.38;;;23.61;31.78
19890;BME280;10107;51.198;6.824;2023-04-19T06:54:01;-21978.13;;;25.54;28.92
19890;BME280;10107;51.198;6.824;2023-04-19T06:58:03;-21987.53;;;25.92;27.54
19890;BME280;10107;51.198;6.824;2023-04-19T07:02:07;-21956.44;;;24.68;28.85
19890;BME280;10107;51.198;6.824;2023-04-19T07:06:10;-21858.09;;;20.79;33.99
19890;BME280;10107;51.198;6.824;2023-04-19T07:10:11;-21786.44;;;17.97;39.32
19890;BME280;10107;51.198;6.824;2023-04-19T07:14:13;-21751.31;;;16.60;43.10
19890;BME280;10107;51.198;6.824;2023-04-19T07:18:14;-21810.88;;;18.93;38.38
19890;BME280;10107;51.198;6.824;2023-04-19T07:22:17;-21821.19;;;19.34;37.55
19890;BME280;10107;51.198;6.824;2023-04-19T07:26:19;-21848.47;;;20.41;34.98
19890;BME280;10107;51.198;6.824;2023-04-19T07:30:21;-21844.28;;;20.25;35.02
19890;BME280;10107;51.198;6.824;2023-04-19T07:34:23;-21871.63;;;21.32;33.34
19890;BME280;10107;51.198;6.824;2023-04-19T07:38:26;-21845.72;;;20.30;33.70
19890;BME280;10107;51.198;6.824;2023-04-19T07:42:28;-21777.16;;;17.61;38.52
19890;BME280;10107;51.198;6.824;2023-04-19T07:46:30;-21763.91;;;17.09;40.19
19890;BME280;10107;51.198;6.824;2023-04-19T07:50:31;-21786.44;;;17.97;39.23
19890;BME280;10107;51.198;6.824;2023-04-19T07:54:34;-21820.81;;;19.32;37.57
19890;BME280;10107;51.198;6.824;2023-04-19T07:58:38;-21844.16;;;20.24;35.36
19890;BME280;10107;51.198;6.824;2023-04-19T08:02:41;-21889.03;;;22.01;32.43
19890;BME280;10107;51.198;6.824;2023-04-19T08:06:43;-21961.72;;;24.89;27.79
19890;BME280;10107;51.198;6.824;2023-04-19T08:10:46;-21969.75;;;25.21;26.94
19890;BME280;10107;51.198;6.824;2023-04-19T08:14:48;-21944.78;;;24.22;27.59
19890;BME280;10107;51.198;6.824;2023-04-19T08:18:50;-21922.41;;;23.33;28.50
19890;BME280;10107;51.198;6.824;2023-04-19T08:22:52;-21916.94;;;23.11;28.41
19890;BME280;10107;51.198;6.824;2023-04-19T08:26:55;-21941.44;;;24.08;27.00
19890;BME280;10107;51.198;6.824;2023-04-19T08:30:58;-21960.81;;;24.85;26.05
19890;BME280;10107;51.198;6.824;2023-04-19T08:34:59;-21954.22;;;24.59;25.55
19890;BME280;10107;51.198;6.824;2023-04-19T08:39:01;-21958.13;;;24.75;25.85
19890;BME280;10107;51.198;6.824;2023-04-19T08:43:05;-21959.53;;;24.80;25.44
19890;BME280;10107;51.198;6.824;2023-04-19T08:47:07;-21951.00;;;24.46;25.17
19890;BME280;10107;51.198;6.824;2023-04-19T08:51:11;-21973.22;;;25.35;24.37
19890;BME280;10107;51.198;6.824;2023-04-19T08:55:14;-21963.41;;;24.96;23.96
19890;BME280;10107;51.198;6.824;2023-04-19T08:59:17;-21960.06;;;24.82;24.72
19890;BME280;10107;51.198;6.824;2023-04-19T09:03:19;-21970.00;;;25.22;23.18
19890;BME280;10107;51.198;6.824;2023-04-19T09:07:24;-21933.66;;;23.78;24.28
19890;BME280;10107;51.198;6.824;2023-04-19T09:11:35;-21939.75;;;24.02;26.18
19890;BME280;10107;51.198;6.824;2023-04-19T09:15:39;-21952.16;;;24.51;24.39
19890;BME280;10107;51.198;6.824;2023-04-19T09:19:46;-21952.81;;;24.54;23.60
19890;BME280;10107;51.198;6.824;2023-04-19T09:23:48;-21971.28;;;25.27;23.01
19890;BME280;10107;51.198;6.824;2023-04-19T09:27:50;-21958.88;;;24.78;22.94
19890;BME280;10107;51.198;6.824;2023-04-19T09:32:02;-21924.47;;;23.41;23.77
19890;BME280;10107;51.198;6.824;2023-04-19T09:36:04;-21929.91;;;23.63;23.99
19890;BME280;10107;51.198;6.824;2023-04-19T09:40:20;-21934.69;;;23.82;23.88
19890;BME280;10107;51.198;6.824;2023-04-19T09:44:23;-21944.66;;;24.21;24.25
19890;BME280;10107;51.198;6.824;2023-04-19T09:48:26;-21917.09;;;23.12;24.09
19890;BME280;10107;51.198;6.824;2023-04-19T09:52:28;-21933.00;;;23.75;24.17
19890;BME280;10107;51.198;6.824;2023-04-19T09:56:30;-21911.25;;;22.89;24.65
19890;BME280;10107;51.198;6.824;2023-04-19T10:00:32;-21912.53;;;22.94;24.32
19890;BME280;10107;51.198;6.824;2023-04-19T10:04:37;-21906.56;;;22.70;23.88
19890;BME280;10107;51.198;6.824;2023-04-19T10:08:40;-21916.31;;;23.09;24.07
19890;BME280;10107;51.198;6.824;2023-04-19T10:12:47;-21903.06;;;22.57;23.24
19890;BME280;10107;51.198;6.824;2023-04-19T10:16:49;-21909.03;;;22.80;23.65
19890;BME280;10107;51.198;6.824;2023-04-19T10:20:56;-21917.34;;;23.13;23.79
19890;BME280;10107;51.198;6.824;2023-04-19T10:25:10;-21937.81;;;23.94;22.56
19890;BME280;10107;51.198;6.824;2023-04-19T10:29:12;-21931.84;;;23.70;21.75
19890;BME280;10107;51.198;6.824;2023-04-19T10:33:23;-21913.84;;;22.99;22.31
19890;BME280;10107;51.198;6.824;2023-04-19T10:37:26;-21900.88;;;22.48;21.53
19890;BME280;10107;51.198;6.824;2023-04-19T10:41:57;-21925.75;;;23.46;19.51
19890;BME280;10107;51.198;6.824;2023-04-19T10:45:59;-21914.47;;;23.02;19.14
19890;BME280;10107;51.198;6.824;2023-04-19T10:50:03;-21938.06;;;23.95;19.26
19890;BME280;10107;51.198;6.824;2023-04-19T10:54:06;-21957.72;;;24.73;19.29
19890;BME280;10107;51.198;6.824;2023-04-19T10:58:08;-21969.09;;;25.18;17.62
19890;BME280;10107;51.198;6.824;2023-04-19T11:02:26;-21929.66;;;23.62;17.74
19890;BME280;10107;51.198;6.824;2023-04-19T11:06:28;-21945.69;;;24.25;18.19
19890;BME280;10107;51.198;6.824;2023-04-19T11:10:31;-21949.06;;;24.39;17.83
19890;BME280;10107;51.198;6.824;2023-04-19T11:14:34;-21945.56;;;24.25;18.90
19890;BME280;10107;51.198;6.824;2023-04-19T11:18:35;-21950.88;;;24.46;20.31
19890;BME280;10107;51.198;6.824;2023-04-19T11:22:38;-21923.94;;;23.39;21.76
19890;BME280;10107;51.198;6.824;2023-04-19T11:26:43;-21907.34;;;22.73;21.33
19890;BME280;10107;51.198;6.824;2023-04-19T11:30:44;-21916.56;;;23.10;19.76
19890;BME280;10107;51.198;6.824;2023-04-19T11:34:46;-21914.22;;;23.01;20.05
19890;BME280;10107;51.198;6.824;2023-04-19T11:38:48;-21929.25;;;23.60;20.48
19890;BME280;10107;51.198;6.824;2023-04-19T11:42:54;-21937.81;;;23.94;19.85
19890;BME280;10107;51.198;6.824;2023-04-19T11:46:57;-21940.25;;;24.04;20.20
19890;BME280;10107;51.198;6.824;2023-04-19T11:50:59;-21903.97;;;22.60;22.12
19890;BME280;10107;51.198;6.824;2023-04-19T11:55:16;-21920.44;;;23.25;20.84
19890;BME280;10107;51.198;6.824;2023-04-19T11:59:20;-21921.88;;;23.31;19.38
19890;BME280;10107;51.198;6.824;2023-04-19T12:03:22;-21904.13;;;22.61;20.36
19890;BME280;10107;51.198;6.824;2023-04-19T12:07:24;-21912.53;;;22.94;20.29
19890;BME280;10107;51.198;6.824;2023-04-19T12:11:41;-21901.66;;;22.51;20.43
19890;BME280;10107;51.198;6.824;2023-04-19T12:15:45;-21887.88;;;21.97;20.40
19890;BME280;10107;51.198;6.824;2023-04-19T12:19:48;-21877.22;;;21.54;20.81
19890;BME280;10107;51.198;6.824;2023-04-19T12:23:53;-21874.09;;;21.42;21.46
19890;BME280;10107;51.198;6.824;2023-04-19T12:27:55;-21879.44;;;21.63;21.26
19890;BME280;10107;51.198;6.824;2023-04-19T12:31:58;-21878.53;;;21.60;21.70
19890;BME280;10107;51.198;6.824;2023-04-19T12:36:00;-21885.81;;;21.88;21.94
19890;BME280;10107;51.198;6.824;2023-04-19T12:40:02;-21872.03;;;21.34;22.22
19890;BME280;10107;51.198;6.824;2023-04-19T12:44:04;-21868.13;;;21.19;22.08
19890;BME280;10107;51.198;6.824;2023-04-19T12:48:07;-21863.16;;;20.99;21.55
19890;BME280;10107;51.198;6.824;2023-04-19T12:52:09;-21857.44;;;20.76;22.10
19890;BME280;10107;51.198;6.824;2023-04-19T12:56:11;-21835.94;;;19.92;22.44
19890;BME280;10107;51.198;6.824;2023-04-19T13:00:13;-21820.03;;;19.29;23.72
19890;BME280;10107;51.198;6.824;2023-04-19T13:04:16;-21828.00;;;19.61;24.04
19890;BME280;10107;51.198;6.824;2023-04-19T13:08:18;-21832.03;;;19.76;24.83
19890;BME280;10107;51.198;6.824;2023-04-19T13:12:20;-21819.78;;;19.28;24.20
19890;BME280;10107;51.198;6.824;2023-04-19T13:16:23;-21810.75;;;18.93;24.38
19890;BME280;10107;51.198;6.824;2023-04-19T13:20:26;-21808.00;;;18.82;25.09
19890;BME280;10107;51.198;6.824;2023-04-19T13:24:28;-21815.59;;;19.12;24.33
19890;BME280;10107;51.198;6.824;2023-04-19T13:28:29;-21811.03;;;18.94;24.37
19890;BME280;10107;51.198;6.824;2023-04-19T13:32:31;-21804.22;;;18.67;24.89
19890;BME280;10107;51.198;6.824;2023-04-19T13:36:34;-21805.13;;;18.71;25.08
19890;BME280;10107;51.198;6.824;2023-04-19T13:40:37;-21802.41;;;18.60;24.84
19890;BME280;10107;51.198;6.824;2023-04-19T13:44:38;-21795.22;;;18.32;25.98
19890;BME280;10107;51.198;6.824;2023-04-19T13:48:40;-21787.50;;;18.01;25.09
19890;BME280;10107;51.198;6.824;2023-04-19T13:52:43;-21776.50;;;17.58;25.62
19890;BME280;10107;51.198;6.824;2023-04-19T13:56:45;-21766.66;;;17.20;26.37
19890;BME280;10107;51.198;6.824;2023-04-19T14:00:47;-21764.19;;;17.10;26.31
19890;BME280;10107;51.198;6.824;2023-04-19T14:04:48;-21763.91;;;17.09;26.97
19890;BME280;10107;51.198;6.824;2023-04-19T14:08:51;-21758.94;;;16.90;26.88
19890;BME280;10107;51.198;6.824;2023-04-19T14:12:53;-21762.22;;;17.02;27.92
19890;BME280;10107;51.198;6.824;2023-04-19T14:16:54;-21765.75;;;17.16;27.75
19890;BME280;10107;51.198;6.824;2023-04-19T14:20:56;-21763.53;;;17.08;27.53
19890;BME280;10107;51.198;6.824;2023-04-19T14:24:59;-21750.66;;;16.57;27.93
19890;BME280;10107;51.198;6.824;2023-04-19T14:29:01;-21745.16;;;16.36;27.66
19890;BME280;10107;51.198;6.824;2023-04-19T14:33:03;-21738.88;;;16.11;26.64
19890;BME280;10107;51.198;6.824;2023-04-19T14:37:04;-21734.00;;;15.92;26.92
19890;BME280;10107;51.198;6.824;2023-04-19T14:41:07;-21737.41;;;16.06;26.95
19890;BME280;10107;51.198;6.824;2023-04-19T14:45:10;-21731.78;;;15.83;27.16
19890;BME280;10107;51.198;6.824;2023-04-19T14:49:11;-21730.06;;;15.77;27.85
19890;BME280;10107;51.198;6.824;2023-04-19T14:53:13;-21729.03;;;15.73;27.38
19890;BME280;10107;51.198;6.824;2023-04-19T14:57:16;-21727.16;;;15.65;27.18
19890;BME280;10107;51.198;6.824;2023-04-19T15:01:18;-21725.72;;;15.60;27.52
19890;BME280;10107;51.198;6.824;2023-04-19T15:05:24;-21723.50;;;15.51;27.76
19890;BME280;10107;51.198;6.824;2023-04-19T15:09:26;-21716.41;;;15.23;27.72
19890;BME280;10107;51.198;6.824;2023-04-19T15:13:29;-21716.78;;;15.25;27.59
19890;BME280;10107;51.198;6.824;2023-04-19T15:17:31;-21719.28;;;15.35;26.97
19890;BME280;10107;51.198;6.824;2023-04-19T15:21:32;-21717.97;;;15.30;27.31
19890;BME280;10107;51.198;6.824;2023-04-19T15:25:34;-21716.28;;;15.23;27.58
19890;BME280;10107;51.198;6.824;2023-04-19T15:29:38;-21713.09;;;15.11;27.99
19890;BME280;10107;51.198;6.824;2023-04-19T15:33:40;-21712.59;;;15.09;28.70
19890;BME280;10107;51.198;6.824;2023-04-19T15:37:42;-21713.50;;;15.12;28.12
19890;BME280;10107;51.198;6.824;2023-04-19T15:41:43;-21711.00;;;15.02;27.67
19890;BME280;10107;51.198;6.824;2023-04-19T15:45:46;-21705.34;;;14.80;28.02
19890;BME280;10107;51.198;6.824;2023-04-19T15:49:48;-21702.84;;;14.71;28.90
19890;BME280;10107;51.198;6.824;2023-04-19T15:53:52;-21703.78;;;14.74;28.54
19890;BME280;10107;51.198;6.824;2023-04-19T15:57:53;-21699.31;;;14.57;28.89
19890;BME280;10107;51.198;6.824;2023-04-19T16:01:56;-21701.28;;;14.64;29.24
19890;BME280;10107;51.198;6.824;2023-04-19T16:05:58;-21703.25;;;14.72;29.43
19890;BME280;10107;51.198;6.824;2023-04-19T16:10:00;-21704.56;;;14.77;29.23
19890;BME280;10107;51.198;6.824;2023-04-19T16:14:02;-21703.91;;;14.75;28.44
19890;BME280;10107;51.198;6.824;2023-04-19T16:18:05;-21702.19;;;14.68;28.69
19890;BME280;10107;51.198;6.824;2023-04-19T16:22:07;-21700.47;;;14.61;28.59
19890;BME280;10107;51.198;6.824;2023-04-19T16:26:09;-21697.97;;;14.52;28.84
19890;BME280;10107;51.198;6.824;2023-04-19T16:30:11;-21697.72;;;14.51;28.57
19890;BME280;10107;51.198;6.824;2023-04-19T16:34:14;-21695.47;;;14.42;28.46
19890;BME280;10107;51.198;6.824;2023-04-19T16:38:18;-21692.06;;;14.29;28.20
19890;BME280;10107;51.198;6.824;2023-04-19T16:42:19;-21691.66;;;14.27;28.29
19890;BME280;10107;51.198;6.824;2023-04-19T16:46:21;-21692.19;;;14.29;28.46
19890;BME280;10107;51.198;6.824;2023-04-19T16:50:24;-21691.78;;;14.27;28.33
19890;BME280;10107;51.198;6.824;2023-04-19T16:54:26;-21687.59;;;14.11;28.01
19890;BME280;10107;51.198;6.824;2023-04-19T16:58:27;-21685.88;;;14.04;28.30
19890;BME280;10107;51.198;6.824;2023-04-19T17:02:30;-21685.06;;;14.01;28.54
19890;BME280;10107;51.198;6.824;2023-04-19T17:06:33;-21685.34;;;14.02;29.04
19890;BME280;10107;51.198;6.824;2023-04-19T17:10:34;-21684.81;;;14.00;29.07
19890;BME280;10107;51.198;6.824;2023-04-19T17:14:37;-21682.44;;;13.91;28.69
19890;BME280;10107;51.198;6.824;2023-04-19T17:18:39;-21680.34;;;13.83;29.17
19890;BME280;10107;51.198;6.824;2023-04-19T17:22:42;-21678.09;;;13.74;28.91
19890;BME280;10107;51.198;6.824;2023-04-19T17:26:44;-21674.41;;;13.60;29.37
19890;BME280;10107;51.198;6.824;2023-04-19T17:30:45;-21672.97;;;13.54;29.50
19890;BME280;10107;51.198;6.824;2023-04-19T17:34:47;-21670.84;;;13.46;29.16
19890;BME280;10107;51.198;6.824;2023-04-19T17:38:50;-21668.47;;;13.37;29.57
19890;BME280;10107;51.198;6.824;2023-04-19T17:42:52;-21665.97;;;13.27;29.70
19890;BME280;10107;51.198;6.824;2023-04-19T17:46:54;-21663.19;;;13.16;30.00
19890;BME280;10107;51.198;6.824;2023-04-19T17:50:55;-21659.50;;;13.02;30.00
19890;BME280;10107;51.198;6.824;2023-04-19T17:54:58;-21656.59;;;12.91;30.00
19890;BME280;10107;51.198;6.824;2023-04-19T17:59:00;-21653.97;;;12.80;30.22
19890;BME280;10107;51.198;6.824;2023-04-19T18:03:03;-21650.78;;;12.68;30.12
19890;BME280;10107;51.198;6.824;2023-04-19T18:07:05;-21648.28;;;12.58;30.54
19890;BME280;10107;51.198;6.824;2023-04-19T18:11:09;-21645.25;;;12.46;30.94
19890;BME280;10107;51.198;6.824;2023-04-19T18:15:10;-21642.47;;;12.36;30.99
19890;BME280;10107;51.198;6.824;2023-04-19T18:19:12;-21641.16;;;12.31;31.53
19890;BME280;10107;51.198;6.824;2023-04-19T18:23:14;-21638.50;;;12.20;32.00
19890;BME280;10107;51.198;6.824;2023-04-19T18:27:16;-21636.25;;;12.12;31.72
19890;BME280;10107;51.198;6.824;2023-04-19T18:31:18;-21632.69;;;11.98;32.27
19890;BME280;10107;51.198;6.824;2023-04-19T18:35:20;-21628.72;;;11.82;32.96
19890;BME280;10107;51.198;6.824;2023-04-19T18:39:22;-21624.88;;;11.67;32.78
19890;BME280;10107;51.198;6.824;2023-04-19T18:43:25;-21620.91;;;11.52;33.58
19890;BME280;10107;51.198;6.824;2023-04-19T18:47:28;-21617.88;;;11.40;34.22
19890;BME280;10107;51.198;6.824;2023-04-19T18:51:30;-21614.72;;;11.28;34.74
19890;BME280;10107;51.198;6.824;2023-04-19T18:55:32;-21611.94;;;11.17;34.78
19890;BME280;10107;51.198;6.824;2023-04-19T18:59:35;-21610.06;;;11.10;34.84
19890;BME280;10107;51.198;6.824;2023-04-19T19:03:37;-21606.63;;;10.97;35.43
19890;BME280;10107;51.198;6.824;2023-04-19T19:07:39;-21603.84;;;10.86;36.14
19890;BME280;10107;51.198;6.824;2023-04-19T19:11:41;-21601.59;;;10.77;36.38
19890;BME280;10107;51.198;6.824;2023-04-19T19:15:44;-21601.19;;;10.76;36.87
19890;BME280;10107;51.198;6.824;2023-04-19T19:19:45;-21598.56;;;10.65;35.76
19890;BME280;10107;51.198;6.824;2023-04-19T19:23:47;-21597.63;;;10.62;36.41
19890;BME280;10107;51.198;6.824;2023-04-19T19:27:49;-21595.25;;;10.53;37.44
19890;BME280;10107;51.198;6.824;2023-04-19T19:31:56;-21592.88;;;10.43;37.31
19890;BME280;10107;51.198;6.824;2023-04-19T19:35:57;-21591.00;;;10.36;37.81
19890;BME280;10107;51.198;6.824;2023-04-19T19:39:59;-21588.22;;;10.25;38.33
19890;BME280;10107;51.198;6.824;2023-04-19T19:44:02;-21587.28;;;10.22;38.43
19890;BME280;10107;51.198;6.824;2023-04-19T19:48:06;-21586.75;;;10.20;38.15
19890;BME280;10107;51.198;6.824;2023-04-19T19:52:08;-21585.97;;;10.17;38.18
19890;BME280;10107;51.198;6.824;2023-04-19T19:56:10;-21584.38;;;10.10;39.11
19890;BME280;10107;51.198;6.824;2023-04-19T20:00:12;-21582.53;;;10.03;39.55
19890;BME280;10107;51.198;6.824;2023-04-19T20:04:16;-21579.59;;;9.92;40.16
19890;BME280;10107;51.198;6.824;2023-04-19T20:08:18;-21577.75;;;9.85;40.59
19890;BME280;10107;51.198;6.824;2023-04-19T20:12:20;-21575.88;;;9.78;41.06
19890;BME280;10107;51.198;6.824;2023-04-19T20:16:21;-21574.44;;;9.72;40.65
19890;BME280;10107;51.198;6.824;2023-04-19T20:20:25;-21572.19;;;9.63;40.95
19890;BME280;10107;51.198;6.824;2023-04-19T20:24:27;-21569.78;;;9.54;41.54
19890;BME280;10107;51.198;6.824;2023-04-19T20:28:29;-21568.06;;;9.47;42.32
19890;BME280;10107;51.198;6.824;2023-04-19T20:32:30;-21565.53;;;9.38;41.99
19890;BME280;10107;51.198;6.824;2023-04-19T20:36:34;-21564.47;;;9.34;43.20
19890;BME280;10107;51.198;6.824;2023-04-19T20:40:36;-21563.16;;;9.28;43.10
19890;BME280;10107;51.198;6.824;2023-04-19T20:44:37;-21560.50;;;9.18;43.65
19890;BME280;10107;51.198;6.824;2023-04-19T20:48:39;-21558.25;;;9.09;44.78
19890;BME280;10107;51.198;6.824;2023-04-19T20:52:42;-21555.59;;;8.99;44.63
19890;BME280;10107;51.198;6.824;2023-04-19T20:56:46;-21554.53;;;8.95;44.78
19890;BME280;10107;51.198;6.824;2023-04-19T21:00:47;-21553.19;;;8.90;45.31
19890;BME280;10107;51.198;6.824;2023-04-19T21:04:50;-21552.53;;;8.87;45.43
19890;BME280;10107;51.198;6.824;2023-04-19T21:08:53;-21551.34;;;8.83;46.19